Time;durP1;ratioP1;P1;durP2;ratioP2;P2;SDS_P1;SDS_P2;PMS_P1;PMS_P2;Temp;Humidity;BMP_temperature;BMP_pressure;BME280_temperature;BME280_humidity;BME280_pressure;Samples;Min_cycle;Max_cycle;Signal;HPM_P1;HPM_P2
2022/11/18 00:02:05;;;;;;;;;3.75;1.00;;;;;;;;4978173;28;45382;-64
2022/11/18 00:04:30;;;;;;;;;1.75;1.00;;;;;;;;4978914;28;45445;-64
2022/11/18 00:06:55;;;;;;;;;4.00;1.75;;;;;;;;4978539;28;45406;-64
2022/11/18 00:09:21;;;;;;;;;1.75;1.25;;;;;;;;4978753;28;45497;-64
2022/11/18 00:14:30;;;;;;;;;3.75;2.50;;;;;;;;4978537;28;46325;-64
2022/11/18 00:16:56;;;;;;;;;2.50;2.50;;;;;;;;4977212;28;45786;-64
2022/11/18 00:19:23;;;;;;;;;1.50;1.50;;;;;;;;4976672;28;45437;-64
2022/11/18 00:21:48;;;;;;;;;1.75;1.00;;;;;;;;4980286;28;45577;-64
2022/11/18 00:24:13;;;;;;;;;1.00;1.00;;;;;;;;4979554;28;46406;-64
2022/11/18 00:26:39;;;;;;;;;1.00;1.00;;;;;;;;4979839;28;45339;-64
2022/11/18 00:29:04;;;;;;;;;2.00;2.00;;;;;;;;4979946;28;45252;-64
2022/11/18 00:31:29;;;;;;;;;1.00;1.00;;;;;;;;4980101;28;45172;-64
2022/11/18 00:33:54;;;;;;;;;2.00;1.25;;;;;;;;4979833;28;46474;-64
2022/11/18 00:36:20;;;;;;;;;1.75;1.00;;;;;;;;4977759;28;45476;-64
2022/11/18 00:38:45;;;;;;;;;3.25;1.50;;;;;;;;4979992;28;45212;-64
2022/11/18 00:41:11;;;;;;;;;2.00;2.00;;;;;;;;4978281;28;45400;-64
2022/11/18 00:43:37;;;;;;;;;2.00;2.00;;;;;;;;4979048;28;46551;-64
2022/11/18 00:46:02;;;;;;;;;3.00;1.50;;;;;;;;4979061;28;45540;-64
2022/11/18 00:48:28;;;;;;;;;2.00;2.00;;;;;;;;4979683;28;45346;-64
2022/11/18 00:50:54;;;;;;;;;4.00;2.75;;;;;;;;4979622;28;45965;-64
2022/11/18 00:53:20;;;;;;;;;3.25;1.00;;;;;;;;4979013;28;46417;-64
2022/11/18 00:55:45;;;;;;;;;2.75;2.00;;;;;;;;4979335;28;45802;-64
2022/11/18 00:58:14;;;;;;;;;2.00;2.00;;;;;;;;4978338;28;45711;-64
2022/11/18 01:00:42;;;;;;;;;6.00;2.00;;;;;;;;4979534;28;45317;-64
2022/11/18 01:03:08;;;;;;;;;1.50;1.50;;;;;;;;4979361;28;45470;-64
2022/11/18 01:05:33;;;;;;;;;1.00;1.00;;;;;;;;4978824;28;45550;-64
2022/11/18 01:07:58;;;;;;;;;2.50;2.50;;;;;;;;4979294;28;45291;-64
2022/11/18 01:10:24;;;;;;;;;4.00;3.00;;;;;;;;4979560;28;45409;-64
2022/11/18 01:15:40;;;;;;;;;2.25;2.25;;;;;;;;4978403;28;45488;-64
2022/11/18 01:18:06;;;;;;;;;2.50;2.00;;;;;;;;4978855;28;45476;-64
2022/11/18 01:20:32;;;;;;;;;2.25;2.25;;;;;;;;4979033;28;45342;-64
2022/11/18 01:22:57;;;;;;;;;3.25;2.00;;;;;;;;4978261;28;46370;-64
2022/11/18 01:25:22;;;;;;;;;2.50;2.50;;;;;;;;4979122;28;45410;-64
2022/11/18 01:27:47;;;;;;;;;2.00;1.75;;;;;;;;4977251;28;45418;-64
2022/11/18 01:30:13;;;;;;;;;2.50;2.00;;;;;;;;4978924;28;45308;-64
2022/11/18 01:32:38;;;;;;;;;3.75;2.75;;;;;;;;4978745;28;46363;-64
2022/11/18 01:35:04;;;;;;;;;1.00;1.00;;;;;;;;4978739;28;45320;-64
2022/11/18 01:37:29;;;;;;;;;1.50;1.00;;;;;;;;4978550;28;45692;-64
2022/11/18 01:39:54;;;;;;;;;0.50;0.50;;;;;;;;4979148;28;45336;-64
2022/11/18 01:42:19;;;;;;;;;1.00;1.00;;;;;;;;4978617;28;45599;-64
2022/11/18 01:45:03;;;;;;;;;1.25;1.25;;;;;;;;4978491;28;45335;-64
2022/11/18 01:47:34;;;;;;;;;1.00;1.00;;;;;;;;4977715;28;45436;-64
2022/11/18 01:49:59;;;;;;;;;2.00;1.00;;;;;;;;4979046;28;45419;-64
2022/11/18 01:52:25;;;;;;;;;1.00;1.00;;;;;;;;4977878;28;47456;-64
2022/11/18 01:54:54;;;;;;;;;3.25;2.00;;;;;;;;4978228;28;45665;-64
2022/11/18 01:57:21;;;;;;;;;0.00;0.00;;;;;;;;4978678;28;45422;-64
2022/11/18 01:59:48;;;;;;;;;1.00;1.00;;;;;;;;4978516;28;45440;-64
2022/11/18 02:02:13;;;;;;;;;2.00;2.00;;;;;;;;4977426;28;45471;-64
2022/11/18 02:04:39;;;;;;;;;2.00;2.00;;;;;;;;4977619;28;45451;-64
2022/11/18 02:07:06;;;;;;;;;2.00;2.00;;;;;;;;4978415;28;45378;-64
2022/11/18 02:09:31;;;;;;;;;4.75;1.00;;;;;;;;4978700;28;45430;-64
2022/11/18 02:11:56;;;;;;;;;0.00;0.00;;;;;;;;4978258;28;46626;-64
2022/11/18 02:14:22;;;;;;;;;2.75;1.00;;;;;;;;4977192;28;45391;-64
2022/11/18 02:16:47;;;;;;;;;3.25;1.00;;;;;;;;4978069;28;45359;-64
2022/11/18 02:19:12;;;;;;;;;3.00;1.00;;;;;;;;4977353;28;45465;-64
2022/11/18 02:22:07;;;;;;;;;3.00;3.00;;;;;;;;4977570;28;45476;-64
2022/11/18 02:24:52;;;;;;;;;1.00;1.00;;;;;;;;4968963;28;45571;-64
2022/11/18 02:27:26;;;;;;;;;1.00;1.00;;;;;;;;4970686;28;45469;-64
2022/11/18 02:29:57;;;;;;;;;1.50;1.00;;;;;;;;4978242;28;45699;-64
2022/11/18 02:32:25;;;;;;;;;1.00;1.00;;;;;;;;4977442;28;46342;-64
2022/11/18 02:35:22;;;;;;;;;1.00;1.00;;;;;;;;4976790;28;45313;-64
2022/11/18 02:37:53;;;;;;;;;1.25;1.25;;;;;;;;4936924;28;45609;-64
2022/11/18 02:40:24;;;;;;;;;1.00;1.00;;;;;;;;4936965;28;45309;-64
2022/11/18 02:42:53;;;;;;;;;1.00;1.00;;;;;;;;4936921;28;45473;-64
2022/11/18 02:45:20;;;;;;;;;3.00;2.00;;;;;;;;4935370;28;46801;-64
2022/11/18 02:47:46;;;;;;;;;2.00;2.00;;;;;;;;4937084;28;45550;-64
2022/11/18 02:50:14;;;;;;;;;1.00;1.00;;;;;;;;4937061;28;45550;-64
2022/11/18 02:52:41;;;;;;;;;2.75;1.00;;;;;;;;4936006;28;45456;-64
2022/11/18 02:55:08;;;;;;;;;2.00;1.00;;;;;;;;4936576;28;45320;-64
2022/11/18 02:57:34;;;;;;;;;2.00;1.00;;;;;;;;4936495;28;45506;-62
2022/11/18 02:59:59;;;;;;;;;1.50;1.00;;;;;;;;4936766;28;45373;-62
2022/11/18 03:02:25;;;;;;;;;2.00;1.25;;;;;;;;4933271;28;45368;-64
2022/11/18 03:04:52;;;;;;;;;1.00;1.00;;;;;;;;4917506;28;45325;-64
2022/11/18 03:07:20;;;;;;;;;1.00;1.00;;;;;;;;4917742;28;45389;-64
2022/11/18 03:09:46;;;;;;;;;3.00;2.00;;;;;;;;4917672;28;45475;-64
2022/11/18 03:12:23;;;;;;;;;2.50;2.00;;;;;;;;4933041;28;46585;-64
2022/11/18 03:14:48;;;;;;;;;2.00;2.00;;;;;;;;4977321;28;45459;-64
2022/11/18 03:17:31;;;;;;;;;2.75;2.00;;;;;;;;4978932;28;45725;-64
2022/11/18 03:19:59;;;;;;;;;4.00;4.00;;;;;;;;4980069;28;45378;-64
2022/11/18 03:22:27;;;;;;;;;2.50;2.50;;;;;;;;4979977;28;45351;-64
2022/11/18 03:25:04;;;;;;;;;3.00;2.25;;;;;;;;4980981;28;45395;-64
2022/11/18 03:27:35;;;;;;;;;1.25;1.00;;;;;;;;4980873;28;45445;-64
2022/11/18 03:30:07;;;;;;;;;2.75;2.75;;;;;;;;4980821;28;45323;-64
2022/11/18 03:32:35;;;;;;;;;2.50;2.00;;;;;;;;4980570;28;46598;-64
2022/11/18 03:35:04;;;;;;;;;5.75;2.75;;;;;;;;4980143;28;46337;-64
2022/11/18 03:37:32;;;;;;;;;3.00;3.00;;;;;;;;4979405;28;45385;-64
2022/11/18 03:40:00;;;;;;;;;3.25;2.00;;;;;;;;4980971;28;45359;-64
2022/11/18 03:42:35;;;;;;;;;4.75;3.50;;;;;;;;4980347;28;46472;-64
2022/11/18 03:45:04;;;;;;;;;2.00;2.00;;;;;;;;4979935;28;45391;-64
2022/11/18 03:47:34;;;;;;;;;2.25;2.00;;;;;;;;4980685;28;45246;-64
2022/11/18 03:50:04;;;;;;;;;1.75;1.75;;;;;;;;4980623;28;45438;-64
2022/11/18 03:52:32;;;;;;;;;2.50;2.00;;;;;;;;4979728;28;46700;-64
2022/11/18 03:55:01;;;;;;;;;2.25;1.75;;;;;;;;4964976;28;45371;-64
2022/11/18 03:57:31;;;;;;;;;2.00;2.00;;;;;;;;4961929;28;45427;-64
2022/11/18 04:00:01;;;;;;;;;2.50;1.00;;;;;;;;4980419;28;45383;-64
2022/11/18 04:02:28;;;;;;;;;2.00;0.25;;;;;;;;4980295;28;47229;-64
2022/11/18 04:04:55;;;;;;;;;2.00;1.00;;;;;;;;4979865;28;45557;-64
2022/11/18 04:07:23;;;;;;;;;3.50;2.50;;;;;;;;4979832;28;45358;-64
2022/11/18 04:10:07;;;;;;;;;1.50;1.50;;;;;;;;4979372;28;45602;-64
2022/11/18 04:12:34;;;;;;;;;4.25;1.50;;;;;;;;4960592;28;47489;-64
2022/11/18 04:14:59;;;;;;;;;1.25;1.25;;;;;;;;4960184;28;45411;-64
2022/11/18 04:17:26;;;;;;;;;1.75;1.00;;;;;;;;4960836;28;45314;-64
2022/11/18 04:19:51;;;;;;;;;1.00;1.00;;;;;;;;4961610;28;45489;-64
2022/11/18 04:22:18;;;;;;;;;6.75;2.00;;;;;;;;4979803;28;46538;-64
2022/11/18 04:24:43;;;;;;;;;1.00;1.00;;;;;;;;4979986;28;45290;-64
2022/11/18 04:27:08;;;;;;;;;1.25;1.25;;;;;;;;4978549;28;45362;-64
2022/11/18 04:29:33;;;;;;;;;1.00;1.00;;;;;;;;4980100;28;45304;-64
2022/11/18 04:31:59;;;;;;;;;2.00;2.00;;;;;;;;4979713;28;47285;-64
2022/11/18 04:34:25;;;;;;;;;1.00;1.00;;;;;;;;4979223;28;45431;-64
2022/11/18 04:36:50;;;;;;;;;2.00;1.00;;;;;;;;4979974;28;45414;-64
2022/11/18 04:39:16;;;;;;;;;5.00;2.00;;;;;;;;4979928;28;45378;-64
2022/11/18 04:41:54;;;;;;;;;4.25;3.75;;;;;;;;4978407;28;46497;-64
2022/11/18 04:44:19;;;;;;;;;1.00;1.00;;;;;;;;4979751;28;45314;-64
2022/11/18 04:46:44;;;;;;;;;2.25;1.00;;;;;;;;4979489;28;45447;-64
2022/11/18 04:49:11;;;;;;;;;2.50;2.00;;;;;;;;4979717;28;45433;-64
2022/11/18 04:51:36;;;;;;;;;3.00;1.75;;;;;;;;4979394;28;45573;-64
2022/11/18 04:54:02;;;;;;;;;1.25;1.00;;;;;;;;4979343;28;45353;-64
2022/11/18 04:56:28;;;;;;;;;3.00;2.00;;;;;;;;4979286;28;45335;-64
2022/11/18 04:58:53;;;;;;;;;1.00;1.00;;;;;;;;4978276;28;45409;-65
2022/11/18 05:01:18;;;;;;;;;1.00;1.00;;;;;;;;4978960;28;46563;-65
2022/11/18 05:03:43;;;;;;;;;0.00;0.00;;;;;;;;4979140;28;45465;-65
2022/11/18 05:06:08;;;;;;;;;1.00;1.00;;;;;;;;4979107;28;45493;-65
2022/11/18 05:08:34;;;;;;;;;3.00;1.00;;;;;;;;4979705;28;45354;-65
2022/11/18 05:12:47;;;;;;;;;0.50;0.50;;;;;;;;4979131;28;46412;-65
2022/11/18 05:13:44;;;;;;;;;1.00;1.00;;;;;;;;4959557;28;45424;-65
2022/11/18 05:16:09;;;;;;;;;4.50;1.00;;;;;;;;4969856;28;45397;-65
2022/11/18 05:18:34;;;;;;;;;1.25;1.00;;;;;;;;4979381;28;45342;-64
2022/11/18 05:21:03;;;;;;;;;0.50;0.50;;;;;;;;4978195;28;46406;-65
2022/11/18 05:23:29;;;;;;;;;2.75;1.25;;;;;;;;4979125;28;45445;-65
2022/11/18 05:25:54;;;;;;;;;2.00;1.00;;;;;;;;4978831;28;45351;-65
2022/11/18 05:28:20;;;;;;;;;2.00;0.75;;;;;;;;4979320;28;45334;-65
2022/11/18 05:30:45;;;;;;;;;4.25;0.75;;;;;;;;4978640;28;45537;-64
2022/11/18 05:33:10;;;;;;;;;5.25;2.00;;;;;;;;4977741;28;45208;-65
2022/11/18 05:35:36;;;;;;;;;2.50;1.00;;;;;;;;4978642;28;45404;-64
2022/11/18 05:38:01;;;;;;;;;1.50;1.50;;;;;;;;4979007;28;45326;-64
2022/11/18 05:40:26;;;;;;;;;2.00;0.00;;;;;;;;4976978;28;45542;-65
2022/11/18 05:43:10;;;;;;;;;1.00;1.00;;;;;;;;4978479;28;45478;-65
2022/11/18 05:45:35;;;;;;;;;4.75;1.00;;;;;;;;4978682;28;45445;-65
2022/11/18 05:48:02;;;;;;;;;1.25;1.00;;;;;;;;4978548;28;45347;-65
2022/11/18 05:50:28;;;;;;;;;1.00;1.00;;;;;;;;4977052;28;45278;-64
2022/11/18 05:52:53;;;;;;;;;1.50;0.75;;;;;;;;4978442;28;45351;-65
2022/11/18 05:55:19;;;;;;;;;1.00;1.00;;;;;;;;4978783;28;45434;-64
2022/11/18 05:57:45;;;;;;;;;1.00;1.00;;;;;;;;4978630;28;45473;-64
2022/11/18 06:00:10;;;;;;;;;2.00;2.00;;;;;;;;4978249;28;45617;-64
2022/11/18 06:02:36;;;;;;;;;1.00;1.00;;;;;;;;4978193;28;45421;-64
2022/11/18 06:05:03;;;;;;;;;0.75;0.50;;;;;;;;4978264;28;45476;-64
2022/11/18 06:07:34;;;;;;;;;1.00;1.00;;;;;;;;4977702;28;45635;-65
2022/11/18 06:10:00;;;;;;;;;0.00;0.00;;;;;;;;4978167;28;45672;-65
2022/11/18 06:12:27;;;;;;;;;0.60;0.00;;;;;;;;4978212;28;45283;-64
2022/11/18 06:15:06;;;;;;;;;4.00;4.00;;;;;;;;4977579;28;45529;-64
2022/11/18 06:17:45;;;;;;;;;0.50;0.50;;;;;;;;4978168;28;45509;-64
2022/11/18 06:20:10;;;;;;;;;0.00;0.00;;;;;;;;4978026;28;45401;-64
2022/11/18 06:22:35;;;;;;;;;1.00;1.00;;;;;;;;4977242;28;45429;-64
2022/11/18 06:25:01;;;;;;;;;5.25;5.25;;;;;;;;4977967;28;46414;-64
2022/11/18 06:27:27;;;;;;;;;2.75;2.00;;;;;;;;4978260;28;45480;-64
2022/11/18 06:29:52;;;;;;;;;1.00;1.00;;;;;;;;4978002;28;45414;-65
2022/11/18 06:32:17;;;;;;;;;2.25;2.00;;;;;;;;4976836;28;45525;-65
2022/11/18 06:34:42;;;;;;;;;3.00;1.00;;;;;;;;4978167;28;45349;-64
2022/11/18 06:37:14;;;;;;;;;2.25;1.00;;;;;;;;4978206;28;45562;-65
2022/11/18 06:39:39;;;;;;;;;11.75;7.75;;;;;;;;4976273;28;46633;-65
2022/11/18 06:42:04;;;;;;;;;7.75;2.00;;;;;;;;4977873;28;45354;-64
2022/11/18 06:44:30;;;;;;;;;1.00;1.00;;;;;;;;4976645;28;45517;-64
2022/11/18 06:46:55;;;;;;;;;12.00;12.00;;;;;;;;4977875;28;45669;-64
2022/11/18 06:49:20;;;;;;;;;5.50;2.25;;;;;;;;4977783;28;46500;-64
2022/11/18 06:51:46;;;;;;;;;1.00;1.00;;;;;;;;4976808;28;45473;-65
2022/11/18 06:54:11;;;;;;;;;1.75;1.50;;;;;;;;4977607;28;45315;-65
2022/11/18 06:56:36;;;;;;;;;0.00;0.00;;;;;;;;4977697;28;45559;-65
2022/11/18 06:59:02;;;;;;;;;3.75;3.00;;;;;;;;4976389;28;45445;-64
2022/11/18 07:01:28;;;;;;;;;1.75;1.00;;;;;;;;4977763;28;46157;-64
2022/11/18 07:03:54;;;;;;;;;5.00;1.00;;;;;;;;4977134;28;45326;-64
2022/11/18 07:06:24;;;;;;;;;1.25;1.25;;;;;;;;4976727;28;45302;-65
2022/11/18 07:08:49;;;;;;;;;2.00;2.00;;;;;;;;4976333;28;47211;-64
2022/11/18 07:11:16;;;;;;;;;2.00;2.00;;;;;;;;4977164;28;45434;-64
2022/11/18 07:13:42;;;;;;;;;1.00;1.00;;;;;;;;4977353;28;45422;-64
2022/11/18 07:16:08;;;;;;;;;4.25;4.25;;;;;;;;4976555;28;45294;-64
2022/11/18 07:18:34;;;;;;;;;1.25;1.25;;;;;;;;4976277;28;46278;-65
2022/11/18 07:21:03;;;;;;;;;7.00;3.75;;;;;;;;4977179;28;45256;-64
2022/11/18 07:23:29;;;;;;;;;4.50;4.50;;;;;;;;4977336;28;45319;-64
2022/11/18 07:25:54;;;;;;;;;3.75;3.75;;;;;;;;4976218;28;46215;-64
2022/11/18 07:28:20;;;;;;;;;6.25;3.75;;;;;;;;4977014;28;47256;-64
2022/11/18 07:30:45;;;;;;;;;3.00;3.00;;;;;;;;4977241;28;45402;-65
2022/11/18 07:33:10;;;;;;;;;7.25;3.50;;;;;;;;4976774;28;45300;-65
2022/11/18 07:35:35;;;;;;;;;3.75;2.50;;;;;;;;4976881;28;45581;-65
2022/11/18 07:38:01;;;;;;;;;2.75;2.00;;;;;;;;4976936;28;47027;-65
2022/11/18 07:40:26;;;;;;;;;7.75;4.50;;;;;;;;4975854;28;45461;-65
2022/11/18 07:42:52;;;;;;;;;5.00;3.00;;;;;;;;4975315;28;45450;-65
2022/11/18 07:45:17;;;;;;;;;3.00;2.75;;;;;;;;4977175;28;45605;-65
2022/11/18 07:47:42;;;;;;;;;5.00;5.00;;;;;;;;4976588;28;45489;-65
2022/11/18 07:50:08;;;;;;;;;8.00;5.00;;;;;;;;4977016;28;45312;-65
2022/11/18 07:52:33;;;;;;;;;4.25;4.25;;;;;;;;4976874;28;45302;-65
2022/11/18 07:54:58;;;;;;;;;3.00;3.00;;;;;;;;4977368;28;45239;-65
2022/11/18 07:57:23;;;;;;;;;4.50;2.25;;;;;;;;4976690;28;45346;-65
2022/11/18 07:59:48;;;;;;;;;2.75;2.75;;;;;;;;4976860;28;45295;-65
2022/11/18 08:02:15;;;;;;;;;4.00;3.00;;;;;;;;4977123;28;45406;-65
2022/11/18 08:04:40;;;;;;;;;6.00;5.00;;;;;;;;4980440;28;45257;-65
2022/11/18 08:07:08;;;;;;;;;6.00;3.00;;;;;;;;4980208;28;45399;-65
2022/11/18 08:09:33;;;;;;;;;2.50;2.00;;;;;;;;4980184;28;45402;-65
2022/11/18 08:11:58;;;;;;;;;3.75;2.00;;;;;;;;4980152;28;45416;-65
2022/11/18 08:14:23;;;;;;;;;4.25;3.25;;;;;;;;4962974;28;46372;-65
2022/11/18 08:16:49;;;;;;;;;8.00;8.00;;;;;;;;4979900;28;45379;-65
2022/11/18 08:19:14;;;;;;;;;2.00;2.00;;;;;;;;4980083;28;45410;-65
2022/11/18 08:21:39;;;;;;;;;3.25;3.00;;;;;;;;4979986;28;45414;-65
2022/11/18 08:24:05;;;;;;;;;2.00;2.00;;;;;;;;4980059;28;45565;-65
2022/11/18 08:26:30;;;;;;;;;2.50;2.50;;;;;;;;4979891;28;46080;-65
2022/11/18 08:28:55;;;;;;;;;2.75;1.75;;;;;;;;4979930;28;45450;-65
2022/11/18 08:31:24;;;;;;;;;2.00;2.00;;;;;;;;4979282;28;45485;-65
2022/11/18 08:33:53;;;;;;;;;1.25;0.75;;;;;;;;4979450;28;45668;-65
2022/11/18 08:36:20;;;;;;;;;1.75;1.00;;;;;;;;4979497;28;45461;-65
2022/11/18 08:38:45;;;;;;;;;1.00;1.00;;;;;;;;4979710;28;45413;-65
2022/11/18 08:41:12;;;;;;;;;15.33;15.33;;;;;;;;4979673;28;45424;-65
2022/11/18 08:43:37;;;;;;;;;12.50;8.50;;;;;;;;4979719;28;45357;-65
2022/11/18 08:46:02;;;;;;;;;1.75;1.75;;;;;;;;4979465;28;46343;-65
2022/11/18 08:48:28;;;;;;;;;3.00;3.00;;;;;;;;4979350;28;45453;-65
2022/11/18 08:50:53;;;;;;;;;1.00;1.00;;;;;;;;4979822;28;45380;-65
2022/11/18 08:53:19;;;;;;;;;11.25;9.50;;;;;;;;4979460;28;45401;-65
2022/11/18 08:55:44;;;;;;;;;3.50;2.00;;;;;;;;4979287;28;46407;-65
2022/11/18 08:58:09;;;;;;;;;4.50;2.00;;;;;;;;4979449;28;45477;-65
2022/11/18 09:00:34;;;;;;;;;0.00;0.00;;;;;;;;4979462;28;45452;-65
2022/11/18 09:03:00;;;;;;;;;2.00;2.00;;;;;;;;4979629;28;45291;-65
2022/11/18 09:05:25;;;;;;;;;0.00;0.00;;;;;;;;4978962;28;45460;-65
2022/11/18 09:07:50;;;;;;;;;2.00;1.00;;;;;;;;4979307;28;45454;-65
2022/11/18 09:10:15;;;;;;;;;2.50;1.00;;;;;;;;4979300;28;45387;-65
2022/11/18 09:12:40;;;;;;;;;1.00;1.00;;;;;;;;4979462;28;45402;-65
2022/11/18 09:15:07;;;;;;;;;3.00;1.00;;;;;;;;4978935;28;46068;-65
2022/11/18 09:17:33;;;;;;;;;3.00;1.75;;;;;;;;4978948;28;45373;-65
2022/11/18 09:19:58;;;;;;;;;1.00;1.00;;;;;;;;4979177;28;45470;-65
2022/11/18 09:22:23;;;;;;;;;2.00;1.00;;;;;;;;4979211;28;45180;-64
2022/11/18 09:24:48;;;;;;;;;5.25;1.00;;;;;;;;4978956;28;46450;-65
2022/11/18 09:27:13;;;;;;;;;2.25;1.00;;;;;;;;4979055;28;45625;-65
2022/11/18 09:29:39;;;;;;;;;0.00;0.00;;;;;;;;4978971;28;45473;-65
2022/11/18 09:32:04;;;;;;;;;4.50;1.00;;;;;;;;4979229;28;45452;-65
2022/11/18 09:34:29;;;;;;;;;1.00;1.00;;;;;;;;4978633;28;46506;-65
2022/11/18 09:36:55;;;;;;;;;2.50;2.50;;;;;;;;4978574;28;45519;-65
2022/11/18 09:39:24;;;;;;;;;4.00;1.00;;;;;;;;4978836;28;45426;-65
2022/11/18 09:42:01;;;;;;;;;1.00;1.00;;;;;;;;4979042;28;45282;-65
2022/11/18 09:44:26;;;;;;;;;2.50;1.00;;;;;;;;4978415;28;45402;-65
2022/11/18 09:47:06;;;;;;;;;2.25;1.00;;;;;;;;4978731;28;45402;-65
2022/11/18 09:49:36;;;;;;;;;1.25;1.25;;;;;;;;4978674;28;45575;-65
2022/11/18 09:52:06;;;;;;;;;3.00;2.00;;;;;;;;4978994;28;45381;-65
2022/11/18 09:54:35;;;;;;;;;3.25;2.00;;;;;;;;4977937;28;46434;-65
2022/11/18 09:57:01;;;;;;;;;18.67;15.67;;;;;;;;4978437;28;45398;-65
2022/11/18 09:59:29;;;;;;;;;1.00;1.00;;;;;;;;4978557;28;45401;-65
2022/11/18 10:01:56;;;;;;;;;6.75;5.50;;;;;;;;4978792;28;45586;-65
2022/11/18 10:04:22;;;;;;;;;3.25;3.25;;;;;;;;4978382;28;46470;-65
2022/11/18 10:06:48;;;;;;;;;9.75;7.00;;;;;;;;4978342;28;45847;-65
2022/11/18 10:09:16;;;;;;;;;3.50;2.00;;;;;;;;4978704;28;45441;-65
2022/11/18 10:12:02;;;;;;;;;1.75;1.75;;;;;;;;4978598;28;45245;-65
2022/11/18 10:14:30;;;;;;;;;2.25;1.25;;;;;;;;4977664;28;46761;-65
2022/11/18 10:17:07;;;;;;;;;6.00;1.25;;;;;;;;4978466;28;45430;-65
2022/11/18 10:19:45;;;;;;;;;3.25;1.00;;;;;;;;4978370;28;45382;-65
2022/11/18 10:22:11;;;;;;;;;4.00;3.00;;;;;;;;4978256;28;45441;-65
2022/11/18 10:24:38;;;;;;;;;3.25;2.00;;;;;;;;4978002;28;45590;-65
2022/11/18 10:27:10;;;;;;;;;3.00;2.75;;;;;;;;4977032;28;45228;-65
2022/11/18 10:29:35;;;;;;;;;0.25;0.25;;;;;;;;4978235;28;45359;-65
2022/11/18 10:32:04;;;;;;;;;2.00;1.00;;;;;;;;4978242;28;45413;-65
2022/11/18 10:34:31;;;;;;;;;4.75;2.00;;;;;;;;4977839;28;45721;-65
2022/11/18 10:37:15;;;;;;;;;2.20;2.20;;;;;;;;4977796;28;45456;-65
2022/11/18 10:39:50;;;;;;;;;3.50;2.00;;;;;;;;4978085;28;45481;-65
2022/11/18 10:42:19;;;;;;;;;2.25;2.25;;;;;;;;4978060;28;45432;-65
2022/11/18 10:44:44;;;;;;;;;2.00;2.00;;;;;;;;4977909;28;45695;-65
2022/11/18 10:47:15;;;;;;;;;4.75;2.50;;;;;;;;4977685;28;45370;-65
2022/11/18 10:49:41;;;;;;;;;4.75;2.00;;;;;;;;4977727;28;45306;-65
2022/11/18 10:52:10;;;;;;;;;1.50;1.50;;;;;;;;4978211;28;45398;-65
2022/11/18 10:54:36;;;;;;;;;3.00;1.25;;;;;;;;4977583;28;46248;-65
2022/11/18 10:57:06;;;;;;;;;2.75;2.00;;;;;;;;4977688;28;45441;-65
2022/11/18 10:59:35;;;;;;;;;2.00;2.00;;;;;;;;4977728;28;45351;-65
2022/11/18 11:02:18;;;;;;;;;2.00;2.00;;;;;;;;4977829;28;45419;-65
2022/11/18 11:04:47;;;;;;;;;5.75;4.50;;;;;;;;4977350;28;46802;-65
2022/11/18 11:07:22;;;;;;;;;3.25;2.75;;;;;;;;4977604;28;45437;-65
2022/11/18 11:09:58;;;;;;;;;3.75;2.00;;;;;;;;4977555;28;45427;-66
2022/11/18 11:12:23;;;;;;;;;9.50;6.75;;;;;;;;4977751;28;45403;-65
2022/11/18 11:14:51;;;;;;;;;3.00;2.50;;;;;;;;4977203;28;47205;-65
2022/11/18 11:17:36;;;;;;;;;3.25;2.25;;;;;;;;4977379;28;45465;-65
2022/11/18 11:20:05;;;;;;;;;3.00;1.00;;;;;;;;4976665;28;45477;-66
2022/11/18 11:22:30;;;;;;;;;2.00;2.00;;;;;;;;4977533;28;45569;-65
2022/11/18 11:24:55;;;;;;;;;4.25;3.50;;;;;;;;4977282;28;46597;-66
2022/11/18 11:27:32;;;;;;;;;5.00;2.75;;;;;;;;4977234;28;45441;-65
2022/11/18 11:30:00;;;;;;;;;4.75;2.50;;;;;;;;4977400;28;45374;-65
2022/11/18 11:32:48;;;;;;;;;3.00;1.25;;;;;;;;4977313;28;45658;-65
2022/11/18 11:35:29;;;;;;;;;1.00;1.00;;;;;;;;4916858;28;46270;-66
2022/11/18 11:38:11;;;;;;;;;3.00;3.00;;;;;;;;4918259;28;45371;-65
2022/11/18 11:40:38;;;;;;;;;3.25;0.75;;;;;;;;4920569;28;45314;-65
2022/11/18 11:43:18;;;;;;;;;5.00;2.50;;;;;;;;4920657;28;45481;-65
2022/11/18 11:45:56;;;;;;;;;4.00;3.00;;;;;;;;4920267;28;46093;-66
2022/11/18 11:48:53;;;;;;;;;3.00;2.25;;;;;;;;4920472;28;45412;-65
2022/11/18 11:51:30;;;;;;;;;6.25;6.25;;;;;;;;4844928;29;45754;-65
2022/11/18 11:54:14;;;;;;;;;4.00;2.00;;;;;;;;4845053;29;45487;-66
2022/11/18 11:56:57;;;;;;;;;3.75;3.00;;;;;;;;4844654;29;45539;-65
2022/11/18 11:59:41;;;;;;;;;3.00;1.50;;;;;;;;4844994;29;45497;-66
2022/11/18 12:02:25;;;;;;;;;1.75;1.75;;;;;;;;4844779;29;45297;-66
2022/11/18 12:04:53;;;;;;;;;3.00;1.00;;;;;;;;4844626;29;45486;-63
2022/11/18 12:07:20;;;;;;;;;3.00;2.75;;;;;;;;4844440;29;46614;-63
2022/11/18 12:10:04;;;;;;;;;1.00;1.00;;;;;;;;4844800;29;45345;-63
2022/11/18 12:12:44;;;;;;;;;2.00;2.00;;;;;;;;4878472;29;45420;-63
2022/11/18 12:15:30;;;;;;;;;1.00;1.00;;;;;;;;4901006;29;45520;-63
2022/11/18 12:18:21;;;;;;;;;0.00;0.00;;;;;;;;4862948;29;45515;-63
2022/11/18 12:20:48;;;;;;;;;2.50;1.50;;;;;;;;4859983;29;45502;-63
2022/11/18 12:23:19;;;;;;;;;3.50;1.25;;;;;;;;4863201;29;45281;-65
2022/11/18 12:25:47;;;;;;;;;2.75;2.25;;;;;;;;4863488;28;45302;-65
2022/11/18 12:28:26;;;;;;;;;4.50;2.75;;;;;;;;4919359;28;46508;-65
2022/11/18 12:31:20;;;;;;;;;7.00;4.00;;;;;;;;4919604;28;45388;-65
2022/11/18 12:33:46;;;;;;;;;3.00;2.00;;;;;;;;4902164;28;45446;-65
2022/11/18 12:36:31;;;;;;;;;1.50;1.25;;;;;;;;4919744;28;45314;-65
2022/11/18 12:38:57;;;;;;;;;3.75;1.00;;;;;;;;4919433;28;46285;-65
2022/11/18 12:44:23;;;;;;;;;2.25;1.50;;;;;;;;4919718;28;45492;-65
2022/11/18 12:46:49;;;;;;;;;1.00;1.00;;;;;;;;4919652;28;45546;-65
2022/11/18 12:49:20;;;;;;;;;4.00;1.00;;;;;;;;4919030;28;46255;-65
2022/11/18 12:51:46;;;;;;;;;4.20;2.80;;;;;;;;4919244;28;45471;-65
2022/11/18 12:54:32;;;;;;;;;1.50;1.00;;;;;;;;4928119;28;45346;-65
2022/11/18 12:57:20;;;;;;;;;1.00;1.00;;;;;;;;4969047;28;45640;-65
2022/11/18 12:59:46;;;;;;;;;1.50;1.50;;;;;;;;4971035;28;45657;-65
2022/11/18 13:02:11;;;;;;;;;2.75;1.75;;;;;;;;4979713;28;45940;-65
2022/11/18 13:04:39;;;;;;;;;1.00;1.00;;;;;;;;4979503;28;45474;-65
2022/11/18 13:08:11;;;;;;;;;1.00;1.00;;;;;;;;4979302;28;45323;-65
2022/11/18 13:09:51;;;;;;;;;1.00;1.00;;;;;;;;4979028;28;45471;-65
2022/11/18 13:12:17;;;;;;;;;1.00;1.00;;;;;;;;4979304;28;45403;-65
2022/11/18 13:20:30;;;;;;;;;6.00;5.75;;;;;;;;4978929;28;45734;-66
2022/11/18 13:26:01;;;;;;;;;2.50;2.25;;;;;;;;4979239;28;45532;-65
2022/11/18 13:28:45;;;;;;;;;2.25;1.75;;;;;;;;4979220;28;45993;-65
2022/11/18 13:31:34;;;;;;;;;1.00;1.00;;;;;;;;4978838;28;45533;-65
2022/11/18 13:34:00;;;;;;;;;1.75;1.00;;;;;;;;4978976;28;45795;-65
2022/11/18 13:36:26;;;;;;;;;2.00;2.00;;;;;;;;4978836;28;45232;-65
2022/11/18 13:38:58;;;;;;;;;2.00;2.00;;;;;;;;4979171;28;45429;-65
2022/11/18 13:41:31;;;;;;;;;4.00;2.00;;;;;;;;4978774;28;46390;-65
2022/11/18 13:44:08;;;;;;;;;2.75;1.75;;;;;;;;4978810;28;45406;-65
2022/11/18 13:46:33;;;;;;;;;3.50;1.00;;;;;;;;4978877;28;45443;-65
2022/11/18 13:48:59;;;;;;;;;1.50;1.50;;;;;;;;4979090;28;45343;-65
2022/11/18 13:51:25;;;;;;;;;1.00;0.50;;;;;;;;4978498;28;45417;-65
2022/11/18 13:53:50;;;;;;;;;6.00;5.00;;;;;;;;4978220;28;45287;-65
2022/11/18 13:56:21;;;;;;;;;7.50;5.00;;;;;;;;4978739;28;45374;-65
2022/11/18 13:58:55;;;;;;;;;2.25;1.50;;;;;;;;4978665;28;45331;-65
2022/11/18 14:01:23;;;;;;;;;1.00;1.00;;;;;;;;4977356;28;47015;-65
2022/11/18 14:03:48;;;;;;;;;4.25;2.00;;;;;;;;4978613;28;45445;-65
2022/11/18 14:06:26;;;;;;;;;12.50;10.50;;;;;;;;4978372;28;45531;-65
2022/11/18 14:09:02;;;;;;;;;5.75;5.00;;;;;;;;4978631;28;45202;-65
2022/11/18 14:11:35;;;;;;;;;4.00;2.00;;;;;;;;4978169;28;45991;-65
2022/11/18 14:14:00;;;;;;;;;1.00;1.00;;;;;;;;4978518;28;45344;-66
2022/11/18 14:16:31;;;;;;;;;1.00;1.00;;;;;;;;4978333;28;45725;-65
2022/11/18 14:18:56;;;;;;;;;3.50;3.25;;;;;;;;4978424;28;45358;-65
2022/11/18 14:21:28;;;;;;;;;3.75;2.00;;;;;;;;4977970;28;46185;-65
2022/11/18 14:23:53;;;;;;;;;3.00;2.00;;;;;;;;4977980;28;45461;-65
2022/11/18 14:26:26;;;;;;;;;2.50;2.00;;;;;;;;4978348;28;45504;-65
2022/11/18 14:28:53;;;;;;;;;2.00;1.75;;;;;;;;4978381;28;45473;-65
2022/11/18 14:31:18;;;;;;;;;4.00;3.00;;;;;;;;4977823;28;45564;-65
2022/11/18 14:34:02;;;;;;;;;2.00;2.00;;;;;;;;4978174;28;45472;-65
2022/11/18 14:36:28;;;;;;;;;3.00;2.00;;;;;;;;4978020;28;45285;-65
2022/11/18 14:38:54;;;;;;;;;3.00;3.00;;;;;;;;4978315;28;45331;-65
2022/11/18 14:41:45;;;;;;;;;3.25;1.75;;;;;;;;4977824;28;46784;-65
2022/11/18 14:44:05;;;;;;;;;4.40;1.40;;;;;;;;4977575;28;45379;-65
2022/11/18 14:46:31;;;;;;;;;5.50;1.00;;;;;;;;4978014;28;45462;-65
2022/11/18 14:48:57;;;;;;;;;2.00;2.00;;;;;;;;4977995;28;45244;-65
2022/11/18 14:51:22;;;;;;;;;10.50;8.75;;;;;;;;4977723;28;46184;-65
2022/11/18 14:53:47;;;;;;;;;2.00;2.00;;;;;;;;4977556;28;45419;-65
2022/11/18 14:56:33;;;;;;;;;1.00;1.00;;;;;;;;4977719;28;45544;-65
2022/11/18 14:58:58;;;;;;;;;1.75;1.75;;;;;;;;4977565;28;45393;-65
2022/11/18 15:01:23;;;;;;;;;4.00;1.00;;;;;;;;4977523;28;46098;-65
2022/11/18 15:03:49;;;;;;;;;7.75;6.25;;;;;;;;4977566;28;45311;-65
2022/11/18 15:06:16;;;;;;;;;4.25;4.00;;;;;;;;4977735;28;45339;-65
2022/11/18 15:08:42;;;;;;;;;2.00;2.00;;;;;;;;4977691;28;45495;-65
2022/11/18 15:11:07;;;;;;;;;6.50;4.25;;;;;;;;4977504;28;46435;-65